createdAt,value
2023-01-06T00:00:05.351Z,994.65
2023-01-06T00:01:04.375Z,994.66
2023-01-06T00:02:04.408Z,994.65
2023-01-06T00:03:04.325Z,994.54
2023-01-06T00:04:04.339Z,994.56
2023-01-06T00:05:04.286Z,994.49
2023-01-06T00:06:04.303Z,994.53
2023-01-06T00:07:04.323Z,994.50
2023-01-06T00:08:04.327Z,994.47
2023-01-06T00:09:04.346Z,994.45
2023-01-06T00:10:04.306Z,994.49
2023-01-06T00:11:04.338Z,994.46
2023-01-06T00:12:04.380Z,994.45
2023-01-06T00:13:04.224Z,994.49
2023-01-06T00:14:04.282Z,994.48
2023-01-06T00:15:04.285Z,994.44
2023-01-06T00:16:04.306Z,994.37
2023-01-06T00:17:04.281Z,994.41
2023-01-06T00:18:04.296Z,994.43
2023-01-06T00:19:04.262Z,994.40
2023-01-06T00:20:04.277Z,994.44
2023-01-06T00:21:04.233Z,994.37
2023-01-06T00:22:04.222Z,994.41
2023-01-06T00:23:04.245Z,994.40
2023-01-06T00:24:04.192Z,994.36
2023-01-06T00:25:04.189Z,994.35
2023-01-06T00:26:04.184Z,994.40
2023-01-06T00:27:04.260Z,994.38
2023-01-06T00:28:04.212Z,994.33
2023-01-06T00:29:04.174Z,994.38
2023-01-06T00:30:04.139Z,994.36
2023-01-06T00:31:04.233Z,994.32
2023-01-06T00:32:04.190Z,994.29
2023-01-06T00:33:04.135Z,994.29
2023-01-06T00:34:04.280Z,994.30
2023-01-06T00:35:04.121Z,994.31
2023-01-06T00:36:04.118Z,994.26
2023-01-06T00:37:04.159Z,994.24
2023-01-06T00:38:04.087Z,994.19
2023-01-06T00:39:04.087Z,994.26
2023-01-06T00:40:04.141Z,994.22
2023-01-06T00:41:04.115Z,994.23
2023-01-06T00:42:04.135Z,994.22
2023-01-06T00:43:04.170Z,994.22
2023-01-06T00:44:04.060Z,994.20
2023-01-06T00:45:04.284Z,994.24
2023-01-06T00:46:04.153Z,994.24
2023-01-06T00:47:04.025Z,994.28
2023-01-06T00:48:04.080Z,994.25
2023-01-06T00:49:05.600Z,994.25
2023-01-06T00:50:05.082Z,994.21
2023-01-06T00:51:04.067Z,994.20
2023-01-06T00:52:04.040Z,994.18
2023-01-06T00:53:04.016Z,994.17
2023-01-06T00:54:03.996Z,994.21
2023-01-06T00:55:04.012Z,994.16
2023-01-06T00:56:04.123Z,994.14
2023-01-06T00:57:04.013Z,994.13
2023-01-06T00:58:03.973Z,994.11
2023-01-06T00:59:04.083Z,994.13
2023-01-06T01:00:03.964Z,994.12
2023-01-06T01:01:04.343Z,994.14
2023-01-06T01:02:04.076Z,994.16
2023-01-06T01:03:04.027Z,994.17
2023-01-06T01:04:03.936Z,994.16
2023-01-06T01:05:03.921Z,994.12
2023-01-06T01:06:03.922Z,994.18
2023-01-06T01:07:03.948Z,994.19
2023-01-06T01:08:03.900Z,994.14
2023-01-06T01:09:03.917Z,994.12
2023-01-06T01:10:03.886Z,994.13
2023-01-06T01:11:04.193Z,994.06
2023-01-06T01:12:03.922Z,994.10
2023-01-06T01:13:03.889Z,994.08
2023-01-06T01:14:03.887Z,994.08
2023-01-06T01:15:03.984Z,994.16
2023-01-06T01:16:03.948Z,994.12
2023-01-06T01:17:03.851Z,994.09
2023-01-06T01:18:03.901Z,994.05
2023-01-06T01:19:03.853Z,994.10
2023-01-06T01:20:03.874Z,994.03
2023-01-06T01:21:03.809Z,994.06
2023-01-06T01:22:03.875Z,994.08
2023-01-06T01:23:03.828Z,993.98
2023-01-06T01:24:03.808Z,994.00
2023-01-06T01:25:03.814Z,994.07
2023-01-06T01:26:03.785Z,994.10
2023-01-06T01:27:03.841Z,994.10
2023-01-06T01:28:03.803Z,994.03
2023-01-06T01:29:03.848Z,994.14
2023-01-06T01:30:03.800Z,994.09
2023-01-06T01:31:03.932Z,994.06
2023-01-06T01:32:03.765Z,994.09
2023-01-06T01:33:03.776Z,994.08
2023-01-06T01:34:03.838Z,994.09
2023-01-06T01:35:04.767Z,994.01
2023-01-06T01:36:03.764Z,994.06
2023-01-06T01:37:03.765Z,994.07
2023-01-06T01:38:03.775Z,994.09
2023-01-06T01:39:03.757Z,994.03
2023-01-06T01:40:03.838Z,994.05
2023-01-06T01:41:03.719Z,994.00
2023-01-06T01:42:03.750Z,994.07
2023-01-06T01:43:03.702Z,994.09
2023-01-06T01:44:03.675Z,994.05
2023-01-06T01:45:03.839Z,994.05
2023-01-06T01:46:03.737Z,993.97
2023-01-06T01:47:03.776Z,993.98
2023-01-06T01:48:03.709Z,994.01
2023-01-06T01:49:03.666Z,993.97
2023-01-06T01:50:03.670Z,994.00
2023-01-06T01:51:03.692Z,993.95
2023-01-06T01:52:03.651Z,993.92
2023-01-06T01:53:03.652Z,993.97
2023-01-06T01:54:03.645Z,993.95
2023-01-06T01:55:03.678Z,993.94
2023-01-06T01:56:03.683Z,993.93
2023-01-06T01:57:03.672Z,993.97
2023-01-06T01:58:03.638Z,993.96
2023-01-06T01:59:03.632Z,993.95
2023-01-06T02:00:03.619Z,993.99
2023-01-06T02:01:03.590Z,994.02
2023-01-06T02:02:03.710Z,994.04
2023-01-06T02:03:03.691Z,993.92
2023-01-06T02:04:03.579Z,993.94
2023-01-06T02:05:03.596Z,993.95
2023-01-06T02:06:03.557Z,993.85
2023-01-06T02:07:03.648Z,993.96
2023-01-06T02:08:03.548Z,993.92
2023-01-06T02:09:03.609Z,993.93
2023-01-06T02:10:03.569Z,993.95
2023-01-06T02:11:03.541Z,993.94
2023-01-06T02:12:03.550Z,993.91
2023-01-06T02:13:03.564Z,993.87
2023-01-06T02:14:03.535Z,993.89
2023-01-06T02:15:03.524Z,993.90
2023-01-06T02:16:03.562Z,993.88
2023-01-06T02:17:03.553Z,993.83
2023-01-06T02:18:03.573Z,993.81
2023-01-06T02:19:03.594Z,993.78
2023-01-06T02:20:03.525Z,993.82
2023-01-06T02:21:03.528Z,993.86
2023-01-06T02:22:03.456Z,993.82
2023-01-06T02:23:03.498Z,993.81
2023-01-06T02:24:03.601Z,993.77
2023-01-06T02:25:03.461Z,993.78
2023-01-06T02:26:03.482Z,993.77
2023-01-06T02:27:03.467Z,993.75
2023-01-06T02:28:03.458Z,993.78
2023-01-06T02:29:03.610Z,993.78
2023-01-06T02:30:03.458Z,993.72
2023-01-06T02:31:03.493Z,993.75
2023-01-06T02:32:03.431Z,993.72
2023-01-06T02:33:03.406Z,993.74
2023-01-06T02:34:03.432Z,993.74
2023-01-06T02:35:03.525Z,993.63
2023-01-06T02:36:03.491Z,993.59
2023-01-06T02:37:03.426Z,993.61
2023-01-06T02:38:03.387Z,993.60
2023-01-06T02:39:03.454Z,993.57
2023-01-06T02:40:03.491Z,993.54
2023-01-06T02:41:03.370Z,993.48
2023-01-06T02:42:03.354Z,993.50
2023-01-06T02:43:03.378Z,993.51
2023-01-06T02:44:03.342Z,993.47
2023-01-06T02:45:03.365Z,993.46
2023-01-06T02:46:03.435Z,993.45
2023-01-06T02:47:03.351Z,993.49
2023-01-06T02:48:03.345Z,993.42
2023-01-06T02:49:03.340Z,993.41
2023-01-06T02:50:03.320Z,993.43
2023-01-06T02:51:03.430Z,993.39
2023-01-06T02:52:03.301Z,993.42
2023-01-06T02:53:03.272Z,993.46
2023-01-06T02:54:03.308Z,993.50
2023-01-06T02:55:03.331Z,993.44
2023-01-06T02:56:03.320Z,993.44
2023-01-06T02:57:03.322Z,993.36
2023-01-06T02:58:03.330Z,993.39
2023-01-06T02:59:03.279Z,993.42
2023-01-06T03:00:03.297Z,993.42
2023-01-06T03:01:03.245Z,993.47
2023-01-06T03:02:03.520Z,993.53
2023-01-06T03:03:03.276Z,993.45
2023-01-06T03:04:03.264Z,993.43
2023-01-06T03:05:03.278Z,993.45
2023-01-06T03:06:03.262Z,993.44
2023-01-06T03:07:03.330Z,993.40
2023-01-06T03:08:03.333Z,993.35
2023-01-06T03:09:03.202Z,993.48
2023-01-06T03:10:03.192Z,993.47
2023-01-06T03:11:03.256Z,993.28
2023-01-06T03:12:03.198Z,993.30
2023-01-06T03:13:03.224Z,993.31
2023-01-06T03:14:03.152Z,993.36
2023-01-06T03:15:03.222Z,993.31
2023-01-06T03:16:03.226Z,993.34
2023-01-06T03:17:03.153Z,993.34
2023-01-06T03:18:03.127Z,993.32
2023-01-06T03:19:03.172Z,993.33
2023-01-06T03:20:03.159Z,993.23
2023-01-06T03:21:03.183Z,993.28
2023-01-06T03:22:03.127Z,993.25
2023-01-06T03:23:03.220Z,993.19
2023-01-06T03:24:03.138Z,993.19
2023-01-06T03:25:03.114Z,993.16
2023-01-06T03:26:03.088Z,993.17
2023-01-06T03:27:03.130Z,993.20
2023-01-06T03:28:03.134Z,993.23
2023-01-06T03:29:03.153Z,993.20
2023-01-06T03:30:03.188Z,993.12
2023-01-06T03:31:03.130Z,993.15
2023-01-06T03:32:03.129Z,993.15
2023-01-06T03:33:03.099Z,993.13
2023-01-06T03:34:03.076Z,993.17
2023-01-06T03:35:03.159Z,993.14
2023-01-06T03:36:03.046Z,993.11
2023-01-06T03:37:03.096Z,993.08
2023-01-06T03:38:03.054Z,993.08
2023-01-06T03:39:03.150Z,993.01
2023-01-06T03:40:03.042Z,993.10
2023-01-06T03:41:03.134Z,992.99
2023-01-06T03:42:03.038Z,993.05
2023-01-06T03:43:03.018Z,992.98
2023-01-06T03:44:03.057Z,993.07
2023-01-06T03:45:03.003Z,993.00
2023-01-06T03:46:03.040Z,992.98
2023-01-06T03:47:02.965Z,992.92
2023-01-06T03:48:03.034Z,992.96
2023-01-06T03:49:03.010Z,992.99
2023-01-06T03:50:02.966Z,992.94
2023-01-06T03:51:03.000Z,992.96
2023-01-06T03:52:03.075Z,992.92
2023-01-06T03:53:02.946Z,992.95
2023-01-06T03:54:02.967Z,992.94
2023-01-06T03:55:03.014Z,992.93
2023-01-06T03:56:02.939Z,992.84
2023-01-06T03:57:02.955Z,992.84
2023-01-06T03:58:02.894Z,992.84
2023-01-06T03:59:02.939Z,992.88
2023-01-06T04:00:02.904Z,992.86
2023-01-06T04:01:02.939Z,992.86
2023-01-06T04:02:02.902Z,992.86
2023-01-06T04:03:02.969Z,992.92
2023-01-06T04:04:02.960Z,992.93
2023-01-06T04:05:02.871Z,992.89
2023-01-06T04:06:02.853Z,992.83
2023-01-06T04:07:02.868Z,992.87
2023-01-06T04:08:02.981Z,992.89
2023-01-06T04:09:02.845Z,992.90
2023-01-06T04:10:02.874Z,992.82
2023-01-06T04:11:02.975Z,992.78
2023-01-06T04:12:02.862Z,992.85
2023-01-06T04:13:02.854Z,992.81
2023-01-06T04:14:02.862Z,992.80
2023-01-06T04:15:02.822Z,992.79
2023-01-06T04:16:02.888Z,992.79
2023-01-06T04:17:02.855Z,992.88
2023-01-06T04:18:02.803Z,992.76
2023-01-06T04:19:02.872Z,992.82
2023-01-06T04:20:02.824Z,992.77
2023-01-06T04:21:02.776Z,992.81
2023-01-06T04:22:02.820Z,992.78
2023-01-06T04:23:02.771Z,992.80
2023-01-06T04:24:02.802Z,992.81
2023-01-06T04:25:02.923Z,992.84
2023-01-06T04:26:02.744Z,992.84
2023-01-06T04:27:02.864Z,992.79
2023-01-06T04:28:02.739Z,992.81
2023-01-06T04:29:02.800Z,992.87
2023-01-06T04:30:02.834Z,992.81
2023-01-06T04:31:03.763Z,992.86
2023-01-06T04:32:02.749Z,992.75
2023-01-06T04:33:02.743Z,992.80
2023-01-06T04:34:02.709Z,992.77
2023-01-06T04:35:02.742Z,992.70
2023-01-06T04:36:02.842Z,992.72
2023-01-06T04:37:02.672Z,992.73
2023-01-06T04:38:02.725Z,992.72
2023-01-06T04:39:02.670Z,992.68
2023-01-06T04:40:02.679Z,992.65
2023-01-06T04:41:02.787Z,992.64
2023-01-06T04:42:02.660Z,992.62
2023-01-06T04:43:02.761Z,992.64
2023-01-06T04:44:02.660Z,992.67
2023-01-06T04:45:02.671Z,992.64
2023-01-06T04:46:02.674Z,992.69
2023-01-06T04:47:02.647Z,992.62
2023-01-06T04:48:02.645Z,992.64
2023-01-06T04:49:02.584Z,992.67
2023-01-06T04:50:02.609Z,992.64
2023-01-06T04:51:02.605Z,992.65
2023-01-06T04:52:02.657Z,992.67
2023-01-06T04:53:02.619Z,992.63
2023-01-06T04:54:02.591Z,992.57
2023-01-06T04:55:02.577Z,992.57
2023-01-06T04:56:02.597Z,992.63
2023-01-06T04:57:02.603Z,992.60
2023-01-06T04:58:02.606Z,992.59
2023-01-06T04:59:02.566Z,992.61
2023-01-06T05:00:02.569Z,992.55
2023-01-06T05:01:02.605Z,992.63
2023-01-06T05:02:02.603Z,992.58
2023-01-06T05:03:02.649Z,992.67
2023-01-06T05:04:02.559Z,992.53
2023-01-06T05:05:02.542Z,992.50
2023-01-06T05:06:02.518Z,992.57
2023-01-06T05:07:02.556Z,992.62
2023-01-06T05:08:02.559Z,992.54
2023-01-06T05:09:02.600Z,992.52
2023-01-06T05:10:02.493Z,992.63
2023-01-06T05:11:02.481Z,992.58
2023-01-06T05:12:02.503Z,992.48
2023-01-06T05:13:02.491Z,992.53
2023-01-06T05:14:02.501Z,992.56
2023-01-06T05:15:02.574Z,992.59
2023-01-06T05:16:02.488Z,992.56
2023-01-06T05:17:02.484Z,992.57
2023-01-06T05:18:02.447Z,992.44
2023-01-06T05:19:02.448Z,992.51
2023-01-06T05:20:02.446Z,992.48
2023-01-06T05:21:02.444Z,992.52
2023-01-06T05:22:02.464Z,992.57
2023-01-06T05:23:02.388Z,992.51
2023-01-06T05:24:02.454Z,992.45
2023-01-06T05:25:03.465Z,992.50
2023-01-06T05:26:02.415Z,992.50
2023-01-06T05:27:02.397Z,992.56
2023-01-06T05:28:02.401Z,992.60
2023-01-06T05:29:02.409Z,992.62
2023-01-06T05:30:02.434Z,992.60
2023-01-06T05:31:02.458Z,992.63
2023-01-06T05:32:02.394Z,992.57
2023-01-06T05:33:02.376Z,992.47
2023-01-06T05:34:02.354Z,992.43
2023-01-06T05:35:02.343Z,992.41
2023-01-06T05:36:02.356Z,992.47
2023-01-06T05:37:02.362Z,992.46
2023-01-06T05:38:02.324Z,992.46
2023-01-06T05:39:02.340Z,992.43
2023-01-06T05:40:02.338Z,992.48
2023-01-06T05:41:02.319Z,992.58
2023-01-06T05:42:02.279Z,992.54
2023-01-06T05:43:02.327Z,992.44
2023-01-06T05:44:02.282Z,992.47
2023-01-06T05:45:02.341Z,992.46
2023-01-06T05:46:02.380Z,992.48
2023-01-06T05:47:02.369Z,992.59
2023-01-06T05:48:02.292Z,992.59
2023-01-06T05:49:02.283Z,992.56
2023-01-06T05:50:02.298Z,992.58
2023-01-06T05:51:02.327Z,992.59
2023-01-06T05:52:02.270Z,992.60
2023-01-06T05:53:02.277Z,992.58
2023-01-06T05:54:02.254Z,992.59
2023-01-06T05:55:02.249Z,992.54
2023-01-06T05:56:02.238Z,992.53
2023-01-06T05:57:02.260Z,992.53
2023-01-06T05:58:02.232Z,992.51
2023-01-06T05:59:02.250Z,992.53
2023-01-06T06:00:02.188Z,992.50
2023-01-06T06:01:03.134Z,992.54
2023-01-06T06:02:02.241Z,992.58
2023-01-06T06:03:02.300Z,992.47
2023-01-06T06:04:02.244Z,992.55
2023-01-06T06:05:02.198Z,992.61
2023-01-06T06:06:02.214Z,992.54
2023-01-06T06:07:02.140Z,992.66
2023-01-06T06:08:02.186Z,992.52
2023-01-06T06:09:02.162Z,992.52
2023-01-06T06:10:02.202Z,992.61
2023-01-06T06:11:34.151Z,992.55
2023-01-06T06:12:02.110Z,992.53
2023-01-06T06:13:02.132Z,992.58
2023-01-06T06:14:02.097Z,992.47
2023-01-06T06:15:02.110Z,992.43
2023-01-06T06:16:02.129Z,992.44
2023-01-06T06:17:02.185Z,992.48
2023-01-06T06:18:02.083Z,992.45
2023-01-06T06:19:02.198Z,992.40
2023-01-06T06:20:02.087Z,992.46
2023-01-06T06:21:02.091Z,992.44
2023-01-06T06:22:02.057Z,992.45
2023-01-06T06:23:02.066Z,992.49
2023-01-06T06:24:02.053Z,992.45
2023-01-06T06:25:02.051Z,992.55
2023-01-06T06:26:02.064Z,992.54
2023-01-06T06:27:02.013Z,992.52
2023-01-06T06:28:02.118Z,992.52
2023-01-06T06:29:02.016Z,992.65
2023-01-06T06:30:01.995Z,992.66
2023-01-06T06:31:02.022Z,992.71
2023-01-06T06:32:01.994Z,992.68
2023-01-06T06:33:02.108Z,992.65
2023-01-06T06:34:01.999Z,992.70
2023-01-06T06:35:02.114Z,992.77
2023-01-06T06:36:02.009Z,992.61
2023-01-06T06:37:01.982Z,992.62
2023-01-06T06:38:01.952Z,992.66
2023-01-06T06:39:02.122Z,992.75
2023-01-06T06:40:01.979Z,992.70
2023-01-06T06:41:01.925Z,992.74
2023-01-06T06:42:01.976Z,992.67
2023-01-06T06:43:01.947Z,992.72
2023-01-06T06:44:01.953Z,992.75
2023-01-06T06:45:01.968Z,992.73
2023-01-06T06:46:01.997Z,992.71
2023-01-06T06:47:01.927Z,992.62
2023-01-06T06:48:01.919Z,992.66
2023-01-06T06:49:01.955Z,992.63
2023-01-06T06:50:01.895Z,992.62
2023-01-06T06:51:01.981Z,992.70
2023-01-06T06:52:01.889Z,992.75
2023-01-06T06:53:01.889Z,992.77
2023-01-06T06:54:01.915Z,992.75
2023-01-06T06:55:01.974Z,992.78
2023-01-06T06:56:01.886Z,992.71
2023-01-06T06:57:01.865Z,992.77
2023-01-06T06:58:01.861Z,992.77
2023-01-06T06:59:01.868Z,992.78
2023-01-06T07:00:01.843Z,992.81
2023-01-06T07:01:01.885Z,992.79
2023-01-06T07:02:01.950Z,992.81
2023-01-06T07:03:01.825Z,992.76
2023-01-06T07:04:01.824Z,992.77
2023-01-06T07:05:01.819Z,992.74
2023-01-06T07:06:01.833Z,992.79
2023-01-06T07:07:01.904Z,992.73
2023-01-06T07:08:01.813Z,992.76
2023-01-06T07:09:01.760Z,992.82
2023-01-06T07:10:01.811Z,992.80
2023-01-06T07:11:01.794Z,992.78
2023-01-06T07:12:01.827Z,992.84
2023-01-06T07:13:02.954Z,992.94
2023-01-06T07:14:01.769Z,992.86
2023-01-06T07:15:01.737Z,992.89
2023-01-06T07:16:01.861Z,992.85
2023-01-06T07:17:01.749Z,992.90
2023-01-06T07:18:01.761Z,992.82
2023-01-06T07:19:01.735Z,992.86
2023-01-06T07:20:01.729Z,992.90
2023-01-06T07:21:01.723Z,992.87
2023-01-06T07:22:01.729Z,992.92
2023-01-06T07:23:01.842Z,992.90
2023-01-06T07:24:01.709Z,992.93
2023-01-06T07:25:01.678Z,992.92
2023-01-06T07:26:01.688Z,992.96
2023-01-06T07:27:01.684Z,993.01
2023-01-06T07:28:01.801Z,992.98
2023-01-06T07:29:01.651Z,992.98
2023-01-06T07:30:01.648Z,993.01
2023-01-06T07:31:01.734Z,993.02
2023-01-06T07:32:01.658Z,993.05
2023-01-06T07:33:01.630Z,993.07
2023-01-06T07:34:01.744Z,993.07
2023-01-06T07:35:01.637Z,993.13
2023-01-06T07:36:01.612Z,993.09
2023-01-06T07:37:01.598Z,993.09
2023-01-06T07:38:01.600Z,993.04
2023-01-06T07:39:02.730Z,993.07
2023-01-06T07:40:01.603Z,993.00
2023-01-06T07:41:01.603Z,992.94
2023-01-06T07:42:01.578Z,992.93
2023-01-06T07:43:01.587Z,992.97
2023-01-06T07:44:01.581Z,992.91
2023-01-06T07:45:01.608Z,992.98
2023-01-06T07:46:01.569Z,992.95
2023-01-06T07:47:01.567Z,993.00
2023-01-06T07:48:01.608Z,992.97
2023-01-06T07:49:01.550Z,992.99
2023-01-06T07:50:01.562Z,992.98
2023-01-06T07:51:01.545Z,993.04
2023-01-06T07:52:01.529Z,993.04
2023-01-06T07:53:01.559Z,993.05
2023-01-06T07:54:01.537Z,993.15
2023-01-06T07:55:02.615Z,993.13
2023-01-06T07:56:01.529Z,993.15
2023-01-06T07:57:01.540Z,993.06
2023-01-06T07:58:01.464Z,993.11
2023-01-06T07:59:01.510Z,993.13
2023-01-06T08:00:01.500Z,993.12
2023-01-06T08:01:01.495Z,993.09
2023-01-06T08:02:01.654Z,993.05
2023-01-06T08:03:01.491Z,992.99
2023-01-06T08:04:01.463Z,993.04
2023-01-06T08:05:01.576Z,992.97
2023-01-06T08:06:01.474Z,993.06
2023-01-06T08:07:01.453Z,993.08
2023-01-06T08:08:01.431Z,993.05
2023-01-06T08:09:01.474Z,993.11
2023-01-06T08:10:01.433Z,993.09
2023-01-06T08:11:01.542Z,993.08
2023-01-06T08:12:01.421Z,992.94
2023-01-06T08:13:01.405Z,992.98
2023-01-06T08:14:01.397Z,993.01
2023-01-06T08:15:01.405Z,993.02
2023-01-06T08:16:01.401Z,992.96
2023-01-06T08:17:01.422Z,992.93
2023-01-06T08:18:01.391Z,992.94
2023-01-06T08:19:01.409Z,992.95
2023-01-06T08:20:01.392Z,993.04
2023-01-06T08:21:01.350Z,992.93
2023-01-06T08:22:01.370Z,992.93
2023-01-06T08:23:01.373Z,992.88
2023-01-06T08:24:01.375Z,992.84
2023-01-06T08:25:01.368Z,992.85
2023-01-06T08:26:01.312Z,992.85
2023-01-06T08:27:01.428Z,992.86
2023-01-06T08:28:01.358Z,992.81
2023-01-06T08:29:01.353Z,992.83
2023-01-06T08:30:01.342Z,992.79
2023-01-06T08:31:01.338Z,992.80
2023-01-06T08:32:10.297Z,992.80
2023-01-06T08:33:02.272Z,992.81
2023-01-06T08:34:01.278Z,992.84
2023-01-06T08:35:01.322Z,992.87
2023-01-06T08:36:01.266Z,992.94
2023-01-06T08:37:01.271Z,992.94
2023-01-06T08:38:01.300Z,992.99
2023-01-06T08:39:01.355Z,993.02
2023-01-06T08:40:01.273Z,992.98
2023-01-06T08:41:01.268Z,992.99
2023-01-06T08:42:01.261Z,992.98
2023-01-06T08:43:01.303Z,993.01
2023-01-06T08:44:01.261Z,993.02
2023-01-06T08:45:01.265Z,992.96
2023-01-06T08:46:01.322Z,992.97
2023-01-06T08:47:01.224Z,992.94
2023-01-06T08:48:01.188Z,992.92
2023-01-06T08:49:01.240Z,992.96
2023-01-06T08:50:01.190Z,992.95
2023-01-06T08:51:01.203Z,992.96
2023-01-06T08:52:01.188Z,992.99
2023-01-06T08:53:01.169Z,992.90
2023-01-06T08:54:01.180Z,992.90
2023-01-06T08:55:01.149Z,992.89
2023-01-06T08:56:01.151Z,992.94
2023-01-06T08:57:01.180Z,992.93
2023-01-06T08:58:01.161Z,992.95
2023-01-06T08:59:01.245Z,992.94
2023-01-06T09:00:01.121Z,992.96
2023-01-06T09:01:01.118Z,992.92
2023-01-06T09:02:01.270Z,992.97
2023-01-06T09:03:01.102Z,992.88
2023-01-06T09:04:01.141Z,992.90
2023-01-06T09:05:01.146Z,992.94
2023-01-06T09:06:01.192Z,992.95
2023-01-06T09:07:01.092Z,992.88
2023-01-06T09:08:01.116Z,992.89
2023-01-06T09:09:01.107Z,992.91
2023-01-06T09:10:01.066Z,992.93
2023-01-06T09:11:01.142Z,992.88
2023-01-06T09:12:01.027Z,992.91
2023-01-06T09:13:01.027Z,992.94
2023-01-06T09:14:01.048Z,992.94
2023-01-06T09:15:01.137Z,992.93
2023-01-06T09:16:01.063Z,992.93
